sensor_id;sensor_type;location;lat;lon;timestamp;pressure;altitude;pressure_sealevel;temperature;humidity
71996;BME280;59862;47.732;7.346;2023-11-21T00:00:36;97663.95;;;8.90;100.00
71996;BME280;59862;47.732;7.346;2023-11-21T00:03:04;97654.97;;;8.87;100.00
71996;BME280;59862;47.732;7.346;2023-11-21T00:05:32;97650.66;;;8.82;100.00
71996;BME280;59862;47.732;7.346;2023-11-21T00:08:01;97644.91;;;8.71;100.00
71996;BME280;59862;47.732;7.346;2023-11-21T00:10:29;97649.86;;;8.59;100.00
71996;BME280;59862;47.732;7.346;2023-11-21T00:12:56;97653.03;;;8.59;100.00
71996;BME280;59862;47.732;7.346;2023-11-21T00:15:24;97661.66;;;8.46;100.00
71996;BME280;59862;47.732;7.346;2023-11-21T00:17:52;97651.63;;;8.48;100.00
71996;BME280;59862;47.732;7.346;2023-11-21T00:20:20;97571.78;;;7.96;100.00
71996;BME280;59862;47.732;7.346;2023-11-21T00:22:48;97647.68;;;8.40;100.00
71996;BME280;59862;47.732;7.346;2023-11-21T00:25:15;97653.19;;;8.38;100.00
71996;BME280;59862;47.732;7.346;2023-11-21T00:27:43;97641.19;;;8.34;100.00
71996;BME280;59862;47.732;7.346;2023-11-21T00:30:12;97644.39;;;8.30;100.00
71996;BME280;59862;47.732;7.346;2023-11-21T00:32:40;97644.35;;;8.38;100.00
71996;BME280;59862;47.732;7.346;2023-11-21T00:35:08;97642.90;;;8.27;100.00
71996;BME280;59862;47.732;7.346;2023-11-21T00:37:35;97635.65;;;8.40;100.00
71996;BME280;59862;47.732;7.346;2023-11-21T00:40:06;97636.98;;;8.36;100.00
71996;BME280;59862;47.732;7.346;2023-11-21T00:42:33;97633.97;;;8.39;100.00
71996;BME280;59862;47.732;7.346;2023-11-21T00:45:01;97639.31;;;8.39;100.00
71996;BME280;59862;47.732;7.346;2023-11-21T00:47:30;97632.59;;;8.43;100.00
71996;BME280;59862;47.732;7.346;2023-11-21T00:49:57;97626.30;;;8.40;100.00
71996;BME280;59862;47.732;7.346;2023-11-21T00:52:25;97622.66;;;8.33;100.00
71996;BME280;59862;47.732;7.346;2023-11-21T00:54:53;97619.65;;;8.32;100.00
71996;BME280;59862;47.732;7.346;2023-11-21T00:57:20;97608.99;;;8.28;100.00
71996;BME280;59862;47.732;7.346;2023-11-21T00:59:48;97608.49;;;8.28;100.00
71996;BME280;59862;47.732;7.346;2023-11-21T01:02:16;97599.30;;;8.23;100.00
71996;BME280;59862;47.732;7.346;2023-11-21T01:04:43;97583.02;;;8.14;100.00
71996;BME280;59862;47.732;7.346;2023-11-21T01:07:10;97588.52;;;8.12;100.00
71996;BME280;59862;47.732;7.346;2023-11-21T01:09:38;97583.67;;;8.16;100.00
71996;BME280;59862;47.732;7.346;2023-11-21T01:12:05;97592.56;;;8.08;100.00
71996;BME280;59862;47.732;7.346;2023-11-21T01:14:33;97591.69;;;8.16;100.00
71996;BME280;59862;47.732;7.346;2023-11-21T01:17:02;97590.70;;;8.13;100.00
71996;BME280;59862;47.732;7.346;2023-11-21T01:19:31;97602.22;;;8.13;100.00
71996;BME280;59862;47.732;7.346;2023-11-21T01:21:58;97610.77;;;8.09;100.00
71996;BME280;59862;47.732;7.346;2023-11-21T01:24:26;97615.74;;;8.16;100.00
71996;BME280;59862;47.732;7.346;2023-11-21T01:26:53;97613.72;;;8.18;100.00
71996;BME280;59862;47.732;7.346;2023-11-21T01:29:20;97613.69;;;8.22;100.00
71996;BME280;59862;47.732;7.346;2023-11-21T01:31:48;97624.19;;;8.23;100.00
71996;BME280;59862;47.732;7.346;2023-11-21T01:34:15;97622.05;;;8.27;100.00
71996;BME280;59862;47.732;7.346;2023-11-21T01:36:43;97617.70;;;8.26;100.00
71996;BME280;59862;47.732;7.346;2023-11-21T01:39:11;97612.35;;;8.26;100.00
71996;BME280;59862;47.732;7.346;2023-11-21T01:41:41;97618.23;;;8.44;100.00
71996;BME280;59862;47.732;7.346;2023-11-21T01:44:10;97617.82;;;8.51;100.00
71996;BME280;59862;47.732;7.346;2023-11-21T01:46:39;97621.45;;;8.58;100.00
71996;BME280;59862;47.732;7.346;2023-11-21T01:49:09;97619.61;;;8.59;100.00
71996;BME280;59862;47.732;7.346;2023-11-21T01:51:40;97623.84;;;8.53;100.00
71996;BME280;59862;47.732;7.346;2023-11-21T01:54:08;97629.58;;;8.46;100.00
71996;BME280;59862;47.732;7.346;2023-11-21T01:56:36;97630.27;;;8.44;100.00
71996;BME280;59862;47.732;7.346;2023-11-21T01:59:04;97629.62;;;8.42;100.00
71996;BME280;59862;47.732;7.346;2023-11-21T02:01:34;97645.84;;;8.36;100.00
71996;BME280;59862;47.732;7.346;2023-11-21T02:04:01;97569.11;;;7.96;100.00
71996;BME280;59862;47.732;7.346;2023-11-21T02:06:28;97648.36;;;8.38;100.00
71996;BME280;59862;47.732;7.346;2023-11-21T02:08:57;97642.21;;;8.29;100.00
71996;BME280;59862;47.732;7.346;2023-11-21T02:11:26;97644.17;;;8.39;100.00
71996;BME280;59862;47.732;7.346;2023-11-21T02:13:54;97643.79;;;8.47;100.00
71996;BME280;59862;47.732;7.346;2023-11-21T02:16:21;97641.61;;;8.46;100.00
71996;BME280;59862;47.732;7.346;2023-11-21T02:18:49;97644.63;;;8.43;100.00
71996;BME280;59862;47.732;7.346;2023-11-21T02:21:18;97643.38;;;8.54;100.00
71996;BME280;59862;47.732;7.346;2023-11-21T02:23:46;97639.44;;;8.46;100.00
71996;BME280;59862;47.732;7.346;2023-11-21T02:26:13;97636.06;;;8.29;100.00
71996;BME280;59862;47.732;7.346;2023-11-21T02:28:41;97632.67;;;8.35;100.00
71996;BME280;59862;47.732;7.346;2023-11-21T02:31:09;97622.36;;;8.28;100.00
71996;BME280;59862;47.732;7.346;2023-11-21T02:33:36;97621.33;;;8.33;100.00
71996;BME280;59862;47.732;7.346;2023-11-21T02:36:04;97621.41;;;8.44;100.00
71996;BME280;59862;47.732;7.346;2023-11-21T02:38:32;97627.48;;;8.37;100.00
71996;BME280;59862;47.732;7.346;2023-11-21T02:40:59;97617.74;;;8.40;100.00
71996;BME280;59862;47.732;7.346;2023-11-21T02:43:26;97629.65;;;8.38;100.00
71996;BME280;59862;47.732;7.346;2023-11-21T02:45:54;97623.04;;;8.26;100.00
71996;BME280;59862;47.732;7.346;2023-11-21T02:48:21;97615.33;;;8.31;100.00
71996;BME280;59862;47.732;7.346;2023-11-21T02:50:50;97614.25;;;8.13;100.00
71996;BME280;59862;47.732;7.346;2023-11-21T02:53:19;97626.70;;;8.25;100.00
71996;BME280;59862;47.732;7.346;2023-11-21T02:55:47;97629.03;;;8.24;100.00
71996;BME280;59862;47.732;7.346;2023-11-21T02:58:14;97623.87;;;8.26;100.00
71996;BME280;59862;47.732;7.346;2023-11-21T03:00:42;97621.36;;;8.25;100.00
71996;BME280;59862;47.732;7.346;2023-11-21T03:03:09;97617.08;;;8.16;100.00
71996;BME280;59862;47.732;7.346;2023-11-21T03:05:37;97611.95;;;8.06;100.00
71996;BME280;59862;47.732;7.346;2023-11-21T03:08:04;97608.69;;;8.19;100.00
71996;BME280;59862;47.732;7.346;2023-11-21T03:10:32;97604.83;;;8.21;100.00
71996;BME280;59862;47.732;7.346;2023-11-21T03:12:59;97608.22;;;8.15;100.00
71996;BME280;59862;47.732;7.346;2023-11-21T03:15:27;97610.92;;;8.11;100.00
71996;BME280;59862;47.732;7.346;2023-11-21T03:17:55;97617.70;;;8.22;100.00
71996;BME280;59862;47.732;7.346;2023-11-21T03:20:23;97610.67;;;8.29;100.00
71996;BME280;59862;47.732;7.346;2023-11-21T03:22:52;97611.16;;;8.28;100.00
71996;BME280;59862;47.732;7.346;2023-11-21T03:25:19;97611.16;;;8.28;100.00
71996;BME280;59862;47.732;7.346;2023-11-21T03:27:46;97609.71;;;8.18;100.00
71996;BME280;59862;47.732;7.346;2023-11-21T03:30:14;97605.86;;;8.20;100.00
71996;BME280;59862;47.732;7.346;2023-11-21T03:32:43;97600.55;;;8.12;100.00
71996;BME280;59862;47.732;7.346;2023-11-21T03:35:10;97596.73;;;8.11;100.00
71996;BME280;59862;47.732;7.346;2023-11-21T03:37:37;97590.39;;;8.08;100.00
71996;BME280;59862;47.732;7.346;2023-11-21T03:40:08;97598.66;;;7.98;100.00
71996;BME280;59862;47.732;7.346;2023-11-21T03:42:35;97599.52;;;7.95;100.00
71996;BME280;59862;47.732;7.346;2023-11-21T03:45:03;97593.87;;;7.90;100.00
71996;BME280;59862;47.732;7.346;2023-11-21T03:47:30;97593.09;;;7.81;100.00
71996;BME280;59862;47.732;7.346;2023-11-21T03:49:58;97599.77;;;7.81;100.00
71996;BME280;59862;47.732;7.346;2023-11-21T03:52:26;97597.09;;;7.81;100.00
71996;BME280;59862;47.732;7.346;2023-11-21T03:54:54;97608.74;;;7.84;100.00
71996;BME280;59862;47.732;7.346;2023-11-21T03:57:22;97619.32;;;7.74;100.00
71996;BME280;59862;47.732;7.346;2023-11-21T03:59:49;97604.34;;;7.69;100.00
71996;BME280;59862;47.732;7.346;2023-11-21T04:02:17;97610.02;;;7.65;100.00
71996;BME280;59862;47.732;7.346;2023-11-21T04:04:44;97615.34;;;7.70;100.00
71996;BME280;59862;47.732;7.346;2023-11-21T04:07:12;97614.70;;;7.63;100.00
71996;BME280;59862;47.732;7.346;2023-11-21T04:09:40;97620.20;;;7.66;100.00
71996;BME280;59862;47.732;7.346;2023-11-21T04:12:08;97616.05;;;7.63;100.00
71996;BME280;59862;47.732;7.346;2023-11-21T04:14:36;97624.73;;;7.61;100.00
71996;BME280;59862;47.732;7.346;2023-11-21T04:17:03;97628.90;;;7.64;100.00
71996;BME280;59862;47.732;7.346;2023-11-21T04:19:31;97627.88;;;7.65;100.00
71996;BME280;59862;47.732;7.346;2023-11-21T04:21:58;97627.77;;;7.54;100.00
71996;BME280;59862;47.732;7.346;2023-11-21T04:24:26;97631.04;;;7.64;100.00
71996;BME280;59862;47.732;7.346;2023-11-21T04:26:53;97638.08;;;7.61;100.00
71996;BME280;59862;47.732;7.346;2023-11-21T04:29:20;97628.06;;;7.63;100.00
71996;BME280;59862;47.732;7.346;2023-11-21T04:31:49;97636.56;;;7.63;100.00
71996;BME280;59862;47.732;7.346;2023-11-21T04:34:16;97635.06;;;7.60;100.00
71996;BME280;59862;47.732;7.346;2023-11-21T04:36:43;97645.73;;;7.64;100.00
71996;BME280;59862;47.732;7.346;2023-11-21T04:39:11;97644.41;;;7.60;100.00
71996;BME280;59862;47.732;7.346;2023-11-21T04:41:38;97638.91;;;7.58;100.00
71996;BME280;59862;47.732;7.346;2023-11-21T04:44:06;97640.78;;;7.57;100.00
71996;BME280;59862;47.732;7.346;2023-11-21T04:46:34;97648.80;;;7.53;100.00
71996;BME280;59862;47.732;7.346;2023-11-21T04:49:01;97642.61;;;7.57;100.00
71996;BME280;59862;47.732;7.346;2023-11-21T04:51:29;97646.11;;;7.57;100.00
71996;BME280;59862;47.732;7.346;2023-11-21T04:53:57;97655.30;;;7.55;100.00
71996;BME280;59862;47.732;7.346;2023-11-21T04:56:24;97650.44;;;7.58;100.00
71996;BME280;59862;47.732;7.346;2023-11-21T04:58:54;97660.80;;;7.57;100.00
71996;BME280;59862;47.732;7.346;2023-11-21T05:01:21;97657.43;;;7.63;100.00
71996;BME280;59862;47.732;7.346;2023-11-21T05:03:49;97663.11;;;7.60;100.00
71996;BME280;59862;47.732;7.346;2023-11-21T05:06:16;97665.44;;;7.63;100.00
71996;BME280;59862;47.732;7.346;2023-11-21T05:08:43;97670.73;;;7.72;100.00
71996;BME280;59862;47.732;7.346;2023-11-21T05:11:11;97671.73;;;7.75;100.00
71996;BME280;59862;47.732;7.346;2023-11-21T05:13:38;97679.34;;;7.90;100.00
71996;BME280;59862;47.732;7.346;2023-11-21T05:16:06;97672.48;;;7.91;100.00
71996;BME280;59862;47.732;7.346;2023-11-21T05:18:33;97671.97;;;7.96;100.00
71996;BME280;59862;47.732;7.346;2023-11-21T05:21:01;97677.00;;;7.95;100.00
71996;BME280;59862;47.732;7.346;2023-11-21T05:23:29;97672.98;;;7.91;100.00
71996;BME280;59862;47.732;7.346;2023-11-21T05:25:56;97670.33;;;7.87;100.00
71996;BME280;59862;47.732;7.346;2023-11-21T05:28:23;97669.36;;;7.84;100.00
71996;BME280;59862;47.732;7.346;2023-11-21T05:30:51;97676.89;;;7.76;100.00
71996;BME280;59862;47.732;7.346;2023-11-21T05:33:19;97689.14;;;7.67;100.00
71996;BME280;59862;47.732;7.346;2023-11-21T05:35:47;97694.46;;;7.71;100.00
71996;BME280;59862;47.732;7.346;2023-11-21T05:38:17;97689.78;;;7.73;100.00
71996;BME280;59862;47.732;7.346;2023-11-21T05:40:44;97695.14;;;7.69;100.00
71996;BME280;59862;47.732;7.346;2023-11-21T05:43:11;97695.81;;;7.67;100.00
71996;BME280;59862;47.732;7.346;2023-11-21T05:45:39;97699.81;;;7.62;100.00
71996;BME280;59862;47.732;7.346;2023-11-21T05:48:07;97707.45;;;7.74;100.00
71996;BME280;59862;47.732;7.346;2023-11-21T05:50:34;97704.09;;;7.76;100.00
71996;BME280;59862;47.732;7.346;2023-11-21T05:53:03;97707.42;;;7.78;100.00
71996;BME280;59862;47.732;7.346;2023-11-21T05:55:31;97706.11;;;7.82;100.00
71996;BME280;59862;47.732;7.346;2023-11-21T05:57:59;97705.41;;;7.80;100.00
71996;BME280;59862;47.732;7.346;2023-11-21T06:00:26;97705.41;;;7.80;100.00
71996;BME280;59862;47.732;7.346;2023-11-21T06:02:54;97712.93;;;7.80;100.00
71996;BME280;59862;47.732;7.346;2023-11-21T06:05:24;97717.96;;;7.79;100.00
71996;BME280;59862;47.732;7.346;2023-11-21T06:07:53;97718.93;;;7.82;100.00
71996;BME280;59862;47.732;7.346;2023-11-21T06:10:23;97723.98;;;7.77;100.00
71996;BME280;59862;47.732;7.346;2023-11-21T06:12:50;97720.80;;;7.82;100.00
71996;BME280;59862;47.732;7.346;2023-11-21T06:15:18;97722.46;;;7.79;100.00
71996;BME280;59862;47.732;7.346;2023-11-21T06:17:47;97725.17;;;7.71;100.00
71996;BME280;59862;47.732;7.346;2023-11-21T06:20:16;97729.48;;;7.72;100.00
71996;BME280;59862;47.732;7.346;2023-11-21T06:22:47;97726.85;;;7.63;100.00
71996;BME280;59862;47.732;7.346;2023-11-21T06:25:15;97729.36;;;7.61;100.00
71996;BME280;59862;47.732;7.346;2023-11-21T06:27:45;97727.02;;;7.66;100.00
71996;BME280;59862;47.732;7.346;2023-11-21T06:30:14;97731.04;;;7.62;100.00
71996;BME280;59862;47.732;7.346;2023-11-21T06:32:43;97729.86;;;7.60;100.00
71996;BME280;59862;47.732;7.346;2023-11-21T06:35:12;97733.84;;;7.64;100.00
71996;BME280;59862;47.732;7.346;2023-11-21T06:37:39;97735.21;;;7.56;100.00
71996;BME280;59862;47.732;7.346;2023-11-21T06:40:07;97729.70;;;7.54;100.00
71996;BME280;59862;47.732;7.346;2023-11-21T06:42:36;97730.73;;;7.53;100.00
71996;BME280;59862;47.732;7.346;2023-11-21T06:45:05;97741.23;;;7.50;100.00
71996;BME280;59862;47.732;7.346;2023-11-21T06:47:32;97745.25;;;7.50;100.00
71996;BME280;59862;47.732;7.346;2023-11-21T06:50:00;97748.75;;;7.43;100.00
71996;BME280;59862;47.732;7.346;2023-11-21T06:52:27;97755.09;;;7.46;100.00
71996;BME280;59862;47.732;7.346;2023-11-21T06:54:54;97755.92;;;7.50;100.00
71996;BME280;59862;47.732;7.346;2023-11-21T06:57:23;97755.25;;;7.52;100.00
71996;BME280;59862;47.732;7.346;2023-11-21T06:59:51;97754.05;;;7.63;100.00
71996;BME280;59862;47.732;7.346;2023-11-21T07:02:18;97754.05;;;7.63;100.00
71996;BME280;59862;47.732;7.346;2023-11-21T07:04:46;97755.88;;;7.71;100.00
71996;BME280;59862;47.732;7.346;2023-11-21T07:07:13;97752.53;;;7.73;100.00
71996;BME280;59862;47.732;7.346;2023-11-21T07:09:41;97753.87;;;7.73;100.00
71996;BME280;59862;47.732;7.346;2023-11-21T07:12:08;97752.70;;;7.75;100.00
71996;BME280;59862;47.732;7.346;2023-11-21T07:14:37;97764.17;;;7.80;100.00
71996;BME280;59862;47.732;7.346;2023-11-21T07:17:06;97756.85;;;7.82;100.00
71996;BME280;59862;47.732;7.346;2023-11-21T07:19:34;97761.70;;;7.74;100.00
71996;BME280;59862;47.732;7.346;2023-11-21T07:22:02;97761.52;;;7.76;100.00
71996;BME280;59862;47.732;7.346;2023-11-21T07:24:29;97769.40;;;7.73;100.00
71996;BME280;59862;47.732;7.346;2023-11-21T07:26:58;97766.89;;;7.68;100.00
71996;BME280;59862;47.732;7.346;2023-11-21T07:29:27;97769.56;;;7.68;100.00
71996;BME280;59862;47.732;7.346;2023-11-21T07:31:56;97772.22;;;7.72;100.00
71996;BME280;59862;47.732;7.346;2023-11-21T07:34:23;97777.89;;;7.77;100.00
71996;BME280;59862;47.732;7.346;2023-11-21T07:36:50;97775.89;;;7.75;100.00
71996;BME280;59862;47.732;7.346;2023-11-21T07:39:18;97776.20;;;7.76;100.00
71996;BME280;59862;47.732;7.346;2023-11-21T07:41:45;97776.57;;;7.73;100.00
71996;BME280;59862;47.732;7.346;2023-11-21T07:44:20;97776.41;;;7.70;100.00
71996;BME280;59862;47.732;7.346;2023-11-21T07:46:44;97773.50;;;7.92;100.00
71996;BME280;59862;47.732;7.346;2023-11-21T07:49:12;97767.59;;;8.47;100.00
71996;BME280;59862;47.732;7.346;2023-11-21T07:51:44;97772.84;;;9.31;100.00
71996;BME280;59862;47.732;7.346;2023-11-21T07:54:12;97764.02;;;10.47;100.00
71996;BME280;59862;47.732;7.346;2023-11-21T07:56:39;97764.02;;;10.47;100.00
71996;BME280;59862;47.732;7.346;2023-11-21T07:59:07;97763.76;;;10.89;100.00
71996;BME280;59862;47.732;7.346;2023-11-21T08:01:34;97751.68;;;10.89;100.00
71996;BME280;59862;47.732;7.346;2023-11-21T08:04:01;97760.09;;;11.07;100.00
71996;BME280;59862;47.732;7.346;2023-11-21T08:06:30;97758.47;;;10.59;100.00
71996;BME280;59862;47.732;7.346;2023-11-21T08:08:59;97758.47;;;10.59;100.00
71996;BME280;59862;47.732;7.346;2023-11-21T08:11:26;97760.85;;;10.58;100.00
71996;BME280;59862;47.732;7.346;2023-11-21T08:13:56;97760.08;;;9.85;100.00
71996;BME280;59862;47.732;7.346;2023-11-21T08:16:23;97765.95;;;9.66;100.00
71996;BME280;59862;47.732;7.346;2023-11-21T08:18:51;97763.61;;;10.40;100.00
71996;BME280;59862;47.732;7.346;2023-11-21T08:21:18;97763.61;;;10.40;100.00
71996;BME280;59862;47.732;7.346;2023-11-21T08:23:46;97772.64;;;11.21;100.00
71996;BME280;59862;47.732;7.346;2023-11-21T08:26:18;97774.08;;;11.44;100.00
71996;BME280;59862;47.732;7.346;2023-11-21T08:28:45;97774.47;;;11.31;100.00
71996;BME280;59862;47.732;7.346;2023-11-21T08:31:13;97770.08;;;11.62;100.00
71996;BME280;59862;47.732;7.346;2023-11-21T08:33:42;97765.02;;;11.46;100.00
71996;BME280;59862;47.732;7.346;2023-11-21T08:36:10;97770.84;;;10.86;100.00
71996;BME280;59862;47.732;7.346;2023-11-21T08:38:40;97778.25;;;11.05;100.00
71996;BME280;59862;47.732;7.346;2023-11-21T08:41:08;97785.52;;;11.53;100.00
71996;BME280;59862;47.732;7.346;2023-11-21T08:43:35;97780.70;;;11.00;100.00
71996;BME280;59862;47.732;7.346;2023-11-21T08:46:07;97785.34;;;10.20;100.00
71996;BME280;59862;47.732;7.346;2023-11-21T08:48:37;97791.45;;;9.62;100.00
71996;BME280;59862;47.732;7.346;2023-11-21T08:51:05;97790.15;;;9.21;100.00
71996;BME280;59862;47.732;7.346;2023-11-21T08:53:33;97790.15;;;9.21;100.00
71996;BME280;59862;47.732;7.346;2023-11-21T08:56:00;97787.00;;;8.94;100.00
71996;BME280;59862;47.732;7.346;2023-11-21T08:58:28;97789.57;;;9.10;100.00
71996;BME280;59862;47.732;7.346;2023-11-21T09:00:55;97793.97;;;9.26;100.00
71996;BME280;59862;47.732;7.346;2023-11-21T09:03:23;97802.65;;;9.28;100.00
71996;BME280;59862;47.732;7.346;2023-11-21T09:05:51;97792.50;;;9.90;100.00
71996;BME280;59862;47.732;7.346;2023-11-21T09:08:18;97794.41;;;10.69;100.00
71996;BME280;59862;47.732;7.346;2023-11-21T09:10:46;97796.88;;;11.27;100.00
71996;BME280;59862;47.732;7.346;2023-11-21T09:13:13;97792.92;;;11.62;100.00
71996;BME280;59862;47.732;7.346;2023-11-21T09:15:43;97795.55;;;11.76;100.00
71996;BME280;59862;47.732;7.346;2023-11-21T09:18:15;97801.09;;;11.85;100.00
71996;BME280;59862;47.732;7.346;2023-11-21T09:20:43;97797.09;;;12.90;100.00
71996;BME280;59862;47.732;7.346;2023-11-21T09:23:13;97795.19;;;13.21;100.00
71996;BME280;59862;47.732;7.346;2023-11-21T09:25:41;97792.05;;;12.74;100.00
71996;BME280;59862;47.732;7.346;2023-11-21T09:28:10;97803.92;;;13.00;100.00
71996;BME280;59862;47.732;7.346;2023-11-21T09:30:38;97808.03;;;12.89;100.00
71996;BME280;59862;47.732;7.346;2023-11-21T09:33:05;97807.99;;;12.76;100.00
71996;BME280;59862;47.732;7.346;2023-11-21T09:35:33;97811.20;;;12.69;100.00
71996;BME280;59862;47.732;7.346;2023-11-21T09:38:00;97802.88;;;12.94;100.00
71996;BME280;59862;47.732;7.346;2023-11-21T09:40:29;97804.86;;;12.96;100.00
71996;BME280;59862;47.732;7.346;2023-11-21T09:42:58;97805.31;;;13.06;100.00
71996;BME280;59862;47.732;7.346;2023-11-21T09:45:28;97811.89;;;12.60;100.00
71996;BME280;59862;47.732;7.346;2023-11-21T09:47:57;97807.60;;;12.79;100.00
71996;BME280;59862;47.732;7.346;2023-11-21T09:50:26;97811.11;;;12.73;100.00
71996;BME280;59862;47.732;7.346;2023-11-21T09:55:44;97817.88;;;12.22;100.00
71996;BME280;59862;47.732;7.346;2023-11-21T09:58:13;97821.44;;;11.67;100.00
71996;BME280;59862;47.732;7.346;2023-11-21T10:00:42;97819.72;;;11.66;100.00
71996;BME280;59862;47.732;7.346;2023-11-21T10:03:11;97823.13;;;11.64;100.00
71996;BME280;59862;47.732;7.346;2023-11-21T10:05:42;97820.09;;;12.11;100.00
71996;BME280;59862;47.732;7.346;2023-11-21T10:08:11;97822.41;;;12.55;100.00
71996;BME280;59862;47.732;7.346;2023-11-21T10:10:47;97819.34;;;13.12;100.00
71996;BME280;59862;47.732;7.346;2023-11-21T10:13:15;97814.09;;;12.74;100.00
71996;BME280;59862;47.732;7.346;2023-11-21T10:15:46;97821.13;;;12.45;100.00
71996;BME280;59862;47.732;7.346;2023-11-21T10:18:15;97821.05;;;12.32;100.00
71996;BME280;59862;47.732;7.346;2023-11-21T10:20:44;97822.03;;;12.24;100.00
71996;BME280;59862;47.732;7.346;2023-11-21T10:23:16;97827.20;;;12.08;100.00
71996;BME280;59862;47.732;7.346;2023-11-21T10:25:43;97835.69;;;12.05;100.00
71996;BME280;59862;47.732;7.346;2023-11-21T10:28:11;97825.21;;;11.89;100.00
71996;BME280;59862;47.732;7.346;2023-11-21T10:30:39;97822.61;;;12.02;100.00
71996;BME280;59862;47.732;7.346;2023-11-21T10:33:07;97819.13;;;12.08;100.00
71996;BME280;59862;47.732;7.346;2023-11-21T10:35:45;97822.59;;;11.85;100.00
71996;BME280;59862;47.732;7.346;2023-11-21T10:38:15;97820.55;;;11.87;100.00
71996;BME280;59862;47.732;7.346;2023-11-21T10:40:43;97820.26;;;12.03;100.00
71996;BME280;59862;47.732;7.346;2023-11-21T10:43:13;97821.14;;;12.10;100.00
71996;BME280;59862;47.732;7.346;2023-11-21T10:45:43;97819.30;;;12.17;100.00
71996;BME280;59862;47.732;7.346;2023-11-21T10:48:13;97814.46;;;12.17;100.00
71996;BME280;59862;47.732;7.346;2023-11-21T10:50:45;97816.53;;;12.22;100.00
71996;BME280;59862;47.732;7.346;2023-11-21T10:53:13;97813.08;;;12.10;100.00
71996;BME280;59862;47.732;7.346;2023-11-21T10:55:42;97815.92;;;12.43;100.00
71996;BME280;59862;47.732;7.346;2023-11-21T10:58:14;97811.26;;;12.65;100.00
71996;BME280;59862;47.732;7.346;2023-11-21T11:00:43;97806.47;;;12.77;100.00
71996;BME280;59862;47.732;7.346;2023-11-21T11:03:13;97817.39;;;12.46;100.00
71996;BME280;59862;47.732;7.346;2023-11-21T11:05:41;97818.36;;;12.32;100.00
71996;BME280;59862;47.732;7.346;2023-11-21T11:08:13;97815.27;;;12.17;100.00
71996;BME280;59862;47.732;7.346;2023-11-21T11:10:43;97820.39;;;12.23;100.00
71996;BME280;59862;47.732;7.346;2023-11-21T11:13:13;97823.42;;;12.13;100.00
71996;BME280;59862;47.732;7.346;2023-11-21T11:15:41;97819.46;;;12.27;100.00
71996;BME280;59862;47.732;7.346;2023-11-21T11:18:10;97822.36;;;12.25;100.00
71996;BME280;59862;47.732;7.346;2023-11-21T11:20:40;97828.33;;;12.03;100.00
71996;BME280;59862;47.732;7.346;2023-11-21T11:26:39;97831.48;;;11.69;100.00
71996;BME280;59862;47.732;7.346;2023-11-21T11:34:34;97834.16;;;11.48;100.00
71996;BME280;59862;47.732;7.346;2023-11-21T11:37:05;97834.32;;;11.57;100.00
71996;BME280;59862;47.732;7.346;2023-11-21T11:39:39;97835.49;;;11.58;100.00
71996;BME280;59862;47.732;7.346;2023-11-21T11:42:17;97833.81;;;11.57;100.00
71996;BME280;59862;47.732;7.346;2023-11-21T11:44:47;97844.18;;;11.28;100.00
71996;BME280;59862;47.732;7.346;2023-11-21T11:50:08;97844.88;;;11.16;100.00
71996;BME280;59862;47.732;7.346;2023-11-21T11:52:47;97845.15;;;11.10;100.00
71996;BME280;59862;47.732;7.346;2023-11-21T11:55:19;97844.10;;;11.01;100.00
71996;BME280;59862;47.732;7.346;2023-11-21T11:57:52;97845.63;;;10.89;100.00
71996;BME280;59862;47.732;7.346;2023-11-21T12:03:01;97845.56;;;10.93;100.00
71996;BME280;59862;47.732;7.346;2023-11-21T12:05:34;97843.96;;;10.98;100.00
71996;BME280;59862;47.732;7.346;2023-11-21T12:08:10;97842.63;;;11.09;100.00
71996;BME280;59862;47.732;7.346;2023-11-21T12:10:39;97842.45;;;11.00;100.00
71996;BME280;59862;47.732;7.346;2023-11-21T12:13:10;97839.20;;;11.04;100.00
71996;BME280;59862;47.732;7.346;2023-11-21T12:15:40;97838.87;;;11.03;100.00
71996;BME280;59862;47.732;7.346;2023-11-21T12:18:08;97838.59;;;10.98;100.00
71996;BME280;59862;47.732;7.346;2023-11-21T12:20:35;97837.02;;;10.93;100.00
71996;BME280;59862;47.732;7.346;2023-11-21T12:23:06;97843.25;;;10.90;100.00
71996;BME280;59862;47.732;7.346;2023-11-21T12:25:35;97846.20;;;10.95;100.00
71996;BME280;59862;47.732;7.346;2023-11-21T12:28:03;97849.23;;;10.96;100.00
71996;BME280;59862;47.732;7.346;2023-11-21T12:30:37;97842.39;;;11.04;100.00
71996;BME280;59862;47.732;7.346;2023-11-21T12:33:04;97846.43;;;11.25;100.00
71996;BME280;59862;47.732;7.346;2023-11-21T12:35:34;97840.28;;;11.31;100.00
71996;BME280;59862;47.732;7.346;2023-11-21T12:38:03;97851.67;;;11.33;100.00
71996;BME280;59862;47.732;7.346;2023-11-21T12:40:35;97857.67;;;11.14;100.00
71996;BME280;59862;47.732;7.346;2023-11-21T12:43:03;97857.22;;;11.00;100.00
71996;BME280;59862;47.732;7.346;2023-11-21T12:45:31;97855.27;;;10.94;100.00
71996;BME280;59862;47.732;7.346;2023-11-21T12:48:00;97862.25;;;10.99;100.00
71996;BME280;59862;47.732;7.346;2023-11-21T12:50:31;97860.41;;;10.99;100.00
71996;BME280;59862;47.732;7.346;2023-11-21T12:53:05;97861.48;;;10.94;100.00
71996;BME280;59862;47.732;7.346;2023-11-21T12:55:35;97862.38;;;10.91;100.00
71996;BME280;59862;47.732;7.346;2023-11-21T12:58:08;97864.36;;;10.93;100.00
71996;BME280;59862;47.732;7.346;2023-11-21T13:00:42;97872.75;;;10.79;100.00
71996;BME280;59862;47.732;7.346;2023-11-21T13:03:11;97873.87;;;10.85;100.00
71996;BME280;59862;47.732;7.346;2023-11-21T13:05:41;97871.61;;;10.78;100.00
71996;BME280;59862;47.732;7.346;2023-11-21T13:08:12;97870.91;;;10.80;100.00
71996;BME280;59862;47.732;7.346;2023-11-21T13:10:42;97872.89;;;10.82;100.00
71996;BME280;59862;47.732;7.346;2023-11-21T13:13:12;97878.82;;;10.77;100.00
71996;BME280;59862;47.732;7.346;2023-11-21T13:15:52;97879.69;;;10.88;100.00
71996;BME280;59862;47.732;7.346;2023-11-21T13:18:22;97874.98;;;11.01;100.00
71996;BME280;59862;47.732;7.346;2023-11-21T13:20:50;97878.76;;;10.96;100.00